Decoded Metar for KHYR (HAYWARD in WI, USA) (IATA:HYR) | Meteo·Mobile Aviation Weather
aviador You're here:

KHYR Decoded Metar

HAYWARD in WI, USA
Report Time2018-10-18 08:53:00
UTC Time2018-10-18 09:41:24
Flight Rules vfr VFR
WindCalm
Visibility9999 m
Phenomena:N/A
Clouds:N/A
Expected CloudBase > 400 ft AGL from Temp-Dew spread
CeilingNone
Temp-5°C (ISA -18)
Dew Point-6°C (93% RH)
AAT-7.7°C
QNH1029 hPa
Density Alt-1,440 ft
Elevation1,214 ft
Report Wrong Elevation
Raw Report
KHYR 180853Z AUTO 00000KT 10SM CLR M05/M06 A3039 RMK AO2 SLP307
I1000 I3000 T10501061 58005=

Extra information for KHYR:More info

Metar Taf Metar & Taf Last 4 Metars F.Rules Stats Wind Profile Meteogram Temp Stats Airport Information Weather charts Add Link Nearby VenuesMetar ALERT Operation Metar Decoded Social comments

AIRNAV info for KHYR